Tuesday, June 19, 2018, 12:56 AM GMT
Back to Local

CYSC, Sherbrooke, Que.

Location: , , Canada Lat: 45.4
Local Time: 12:56 AM GMT ( 0:56 GMT) Lon: -71.883
Time Zone: GMT Elev: 557 ft

Show me the last for .
Show Decoded

2018-06-19 00:36 METAR CYSC 190036Z AUTO 33003KT 300V040 4SM RA BR FEW008 BKN019 OVC041 20/19
                 A2959 RMK SLP023 DENSITY ALT 1800FT =
2018-06-19 00:26 METAR CYSC 190026Z AUTO 33006KT 310V010 3SM +RA BR FEW006 OVC017 20/19 A2960 RMK
                 LTNG DIST NE E SLP024 DENSITY ALT 1800FT =
2018-06-19 00:24 METAR CYSC 190024Z AUTO 34008KT 310V010 3SM +RA VCTS BR FEW006 OVC017 20/19
                 A2959 RMK LTNG DIST NE E SLP023 DENSITY ALT 1800FT =
2018-06-19 00:20 METAR CYSC 190020Z AUTO 33007G19KT 300V360 2 1/2SM +RA VCTS BR FEW006 BKN015
                 OVC019 20/19 A2959 RMK LTNG DIST NE E SLP023 DENSITY ALT 1900FT =
2018-06-19 00:03 METAR CYSC 190003Z AUTO 31013G25KT 230V350 4SM +RA VCTS BR SCT014 BKN020 OVC026
                 21/20 A2959 RMK LTNG DIST W NW PRESRR SLP019 DENSITY ALT 2000FT =
2018-06-19 00:02 METAR CYSC 190002Z AUTO 32017G25KT 230V350 6SM -RA BR FEW010 BKN018 OVC026 22/20
                 A2959 RMK LTNG DIST W NW PRESRR SLP019 DENSITY ALT 2100FT =
2018-06-19 00:00 METAR CYSC 190000Z AUTO 31012KT 220V350 9SM BKN018 OVC024 23/21 A2959 RMK LTNG
                 DIST W NW PRESRR PCPN 0.5MM PAST HR SLP019 DENSITY ALT 2200FT =
2018-06-18 23:31 METAR CYSC 182331Z AUTO 24008KT 9SM BKN022 BKN045 BKN085 24/22 A2956 RMK LTNG
                 DIST N NE SLP012 DENSITY ALT 2400FT =
2018-06-18 23:16 METAR CYSC 182316Z AUTO 23007KT 9SM SCT022 BKN048 BKN085 BKN230 24/22 A2956 RMK
                 SLP012 DENSITY ALT 2400FT =
2018-06-18 23:05 METAR CYSC 182305Z AUTO 23006KT 9SM BKN022 BKN065 BKN077 24/22 A2957 RMK SLP014
                 DENSITY ALT 2300FT =
2018-06-18 23:00 METAR CYSC 182300Z AUTO 24006KT 200V260 9SM SCT022 SCT065 BKN083 BKN240 24/22
                 A2957 RMK SLP015 DENSITY ALT 2300FT =
2018-06-18 22:51 METAR CYSC 182251Z AUTO 23005KT 9SM SCT022 BKN027 BKN070 BKN240 24/22 A2958 RMK
                 LTNG DIST S SW SLP016 DENSITY ALT 2300FT =
2018-06-18 22:49 METAR CYSC 182249Z AUTO 23005KT 9SM BKN022 BKN065 BKN230 24/22 A2958 RMK LTNG
                 DIST S SW SLP017 DENSITY ALT 2300FT =
2018-06-18 22:45 METAR CYSC 182245Z AUTO 23005KT 9SM SCT022 BKN065 BKN230 BKN250 24/22 A2958 RMK
                 LTNG DIST S SW SLP016 DENSITY ALT 2300FT =
2018-06-18 22:21 METAR CYSC 182221Z AUTO 23008KT 9SM -RA FEW026 SCT032 BKN042 24/22 A2957 RMK
                 PRESFR SLP015 DENSITY ALT 2400FT =
2018-06-18 22:00 METAR CYSC 182200Z AUTO 23008KT 9SM SCT026 BKN031 BKN039 25/22 A2959 RMK PRESFR
                 SLP022 DENSITY ALT 2400FT =
2018-06-18 21:53 METAR CYSC 182153Z AUTO 23007KT 9SM SCT024 BKN031 OVC039 24/22 A2960 RMK SLP025
                 DENSITY ALT 2400FT =
2018-06-18 21:43 METAR CYSC 182143Z AUTO 24009KT 9SM BKN024 BKN029 OVC034 24/22 A2961 RMK SLP028
                 DENSITY ALT 2300FT =
2018-06-18 21:35 METAR CYSC 182135Z AUTO 24009KT 9SM BKN026 OVC033 25/22 A2961 RMK SLP028 DENSITY
                 ALT 2400FT =
2018-06-18 21:34 METAR CYSC 182134Z AUTO 24008KT 9SM BKN024 OVC031 25/22 A2961 RMK SLP028 DENSITY
                 ALT 2400FT =
2018-06-18 21:33 METAR CYSC 182133Z AUTO 24008KT 9SM SCT024 OVC031 25/22 A2962 RMK SLP029 DENSITY
                 ALT 2400FT =
2018-06-18 21:31 METAR CYSC 182131Z AUTO 23009KT 9SM BKN024 OVC031 25/22 A2961 RMK SLP028 DENSITY
                 ALT 2400FT =
2018-06-18 21:29 METAR CYSC 182129Z AUTO 24009KT 9SM SCT024 OVC031 25/22 A2961 RMK SLP028 DENSITY
                 ALT 2400FT =
2018-06-18 21:26 METAR CYSC 182126Z AUTO 24008KT 9SM BKN024 BKN028 OVC034 25/22 A2961 RMK SLP027
                 DENSITY ALT 2400FT =
2018-06-18 21:22 METAR CYSC 182122Z AUTO 24009KT 9SM SCT024 BKN030 OVC034 24/22 A2961 RMK SLP027
                 DENSITY ALT 2400FT =
2018-06-18 21:21 METAR CYSC 182121Z AUTO 24008KT 9SM BKN024 OVC030 24/22 A2961 RMK SLP028 DENSITY
                 ALT 2300FT =
2018-06-18 21:20 METAR CYSC 182120Z AUTO 25008KT 9SM SCT024 OVC030 24/22 A2961 RMK SLP028 DENSITY
                 ALT 2300FT =
2018-06-18 21:18 METAR CYSC 182118Z AUTO 24008KT 9SM BKN024 OVC030 24/22 A2961 RMK SLP028 DENSITY
                 ALT 2300FT =
2018-06-18 21:15 METAR CYSC 182115Z AUTO 24009KT 9SM SCT024 BKN030 OVC038 24/22 A2961 RMK SLP027
                 DENSITY ALT 2300FT =
2018-06-18 21:14 METAR CYSC 182114Z AUTO 24009KT 9SM BKN024 BKN030 OVC040 24/22 A2961 RMK SLP027
                 DENSITY ALT 2300FT =
2018-06-18 21:00 METAR CYSC 182100Z AUTO 22008KT 9SM BKN028 OVC036 24/22 A2961 RMK SLP027 DENSITY
                 ALT 2300FT =
2018-06-18 20:51 METAR CYSC 182051Z AUTO 22009KT 9SM BKN025 OVC033 24/22 A2962 RMK SLP030 DENSITY
                 ALT 2300FT =
2018-06-18 20:50 METAR CYSC 182050Z AUTO 22008KT 9SM BKN023 BKN030 OVC036 24/22 A2962 RMK SLP030
                 DENSITY ALT 2300FT =
2018-06-18 20:34 METAR CYSC 182034Z AUTO 23009G15KT 9SM SCT022 BKN027 BKN032 OVC039 24/22 A2962
                 RMK SLP032 DENSITY ALT 2300FT =
2018-06-18 20:24 METAR CYSC 182024Z AUTO 24009G17KT 9SM BKN024 OVC032 24/22 A2963 RMK SLP035
                 DENSITY ALT 2300FT =
2018-06-18 20:22 METAR CYSC 182022Z AUTO 23009G17KT 9SM SCT020 BKN026 OVC032 24/22 A2963 RMK
                 SLP035 DENSITY ALT 2300FT =
2018-06-18 20:21 METAR CYSC 182021Z AUTO 22008G17KT 9SM BKN023 OVC032 24/22 A2963 RMK SLP034
                 DENSITY ALT 2300FT =
2018-06-18 20:12 METAR CYSC 182012Z AUTO 23012KT 9SM SCT021 BKN026 OVC032 24/22 A2963 RMK SLP035
                 DENSITY ALT 2300FT =
2018-06-18 20:10 METAR CYSC 182010Z AUTO 23013KT 9SM FEW017 BKN023 BKN032 24/22 A2963 RMK SLP034
                 DENSITY ALT 2300FT =
2018-06-18 20:07 METAR CYSC 182007Z AUTO 23009G15KT 9SM SCT021 BKN025 BKN032 24/22 A2964 RMK
                 SLP036 DENSITY ALT 2300FT =
2018-06-18 20:05 METAR CYSC 182005Z AUTO 23011G18KT 9SM FEW017 BKN024 BKN032 24/22 A2964 RMK
                 SLP036 DENSITY ALT 2300FT
2018-06-18 20:00 METAR CYSC 182000Z AUTO 23011G18KT 9SM BKN025 BKN032 24/22 A2964 RMK SLP036
                 DENSITY ALT 2300FT =
2018-06-18 19:40 METAR CYSC 181940Z AUTO 22011G17KT 9SM SCT021 BKN028 24/22 A2964 RMK SLP038
                 DENSITY ALT 2300FT =
2018-06-18 19:10 METAR CYSC 181910Z AUTO 22005KT 170V240 9SM FEW013 BKN021 BKN027 OVC033 23/22
                 A2967 RMK SLP047 DENSITY ALT 2100FT =
2018-06-18 19:00 METAR CYSC 181900Z AUTO 21004KT 9SM SCT021 OVC033 23/22 A2967 RMK SLP048 DENSITY
                 ALT 2100FT =
2018-06-18 18:14 METAR CYSC 181814Z AUTO 22007KT 9SM FEW044 SCT055 SCT069 BKN085 22/21 A2969 RMK
                 SLP055 DENSITY ALT 2000FT =
2018-06-18 18:02 METAR CYSC 181802Z AUTO 22006KT 200V260 9SM -RA FEW048 SCT060 SCT069 SCT092
                 22/21 A2969 RMK SLP056 DENSITY ALT 2000FT =
2018-06-18 18:00 METAR CYSC 181800Z AUTO 23006G15KT 9SM FEW048 SCT060 SCT069 SCT092 22/21 A2969
                 RMK PRESFR PCPN 3.3MM PAST HR SLP056 DENSITY ALT 2000FT =
2018-06-18 17:46 METAR CYSC 181746Z AUTO 25009KT 9SM FEW031 SCT048 SCT055 BKN240 22/21 A2971 RMK
                 LTNG DIST E SLP060 DENSITY ALT 2000FT =
2018-06-18 17:28 METAR CYSC 181728Z AUTO 24006KT 9SM -RA FEW016 BKN027 BKN037 BKN250 21/21 A2972
                 RMK LTNG DIST E SE SLP064 DENSITY ALT 1900FT =
2018-06-18 17:16 METAR CYSC 181716Z AUTO 26009G18KT 9SM RA VCTS FEW014 BKN025 BKN035 21/21 A2972
                 RMK LTNG DIST E SE S PRESFR SLP066 DENSITY ALT 1800FT =
2018-06-18 17:13 METAR CYSC 181713Z AUTO 26008G20KT 7SM RA VCTS BKN021 BKN027 21/20 A2972 RMK
                 LTNG DIST E SE S PRESFR SLP067 DENSITY ALT 1800FT =
2018-06-18 17:08 METAR CYSC 181708Z AUTO 26014G21KT 3SM RA VCTS BR FEW012 BKN017 21/20 A2974 RMK
                 LTNG DIST E SE S SLP071 DENSITY ALT 1800FT =
2018-06-18 17:06 METAR CYSC 181706Z AUTO 27016G21KT 2 1/4SM +RA VCTS BR BKN014 BKN020 21/20 A2974
                 RMK VIS VRB 1-3 LTNG DIST E SE S PRESRR SLP071 DENSITY ALT 1800FT =
2018-06-18 17:03 METAR CYSC 181703Z AUTO 28016G21KT 1 3/4SM +RA VCTS BR BKN014 BKN020 21/20 A2974
                 RMK VIS VRB 1-3 LTNG DIST E SE S PRESRR SLP072 DENSITY ALT 1800FT =
2018-06-18 17:00 METAR CYSC 181700Z AUTO 28014G21KT 2 1/2SM +RA VCTS BR BKN016 BKN020 20/20 A2974
                 RMK LTNG DIST E SE S PRESRR SLP073 DENSITY ALT 1800FT =
2018-06-18 16:59 METAR CYSC 181659Z AUTO 27014G21KT 2 1/2SM +RA VCTS BR BKN016 BKN023 20/20 A2974
                 RMK LTNG DIST E SE S PRESRR SLP073 DENSITY ALT 1800FT =
2018-06-18 16:56 METAR CYSC 181656Z AUTO 26016G21KT 4SM +RA VCTS BR BKN016 BKN025 21/20 A2975 RMK
                 LTNG DIST ALQDS PRESRR SLP074 DENSITY ALT 1800FT =
2018-06-18 16:50 METAR CYSC 181650Z AUTO 26013G29KT 3SM -TSRA BR BKN014 BKN023 21/20 A2972 RMK
                 LTNG DIST ALQDS SLP066 DENSITY ALT 1800FT =
2018-06-18 16:43 METAR CYSC 181643Z AUTO 26021G30KT 3SM +TSRA BR BKN014 BKN019 BKN025 21/20 A2972
                 RMK LTNG DIST ALQDS SLP067 DENSITY ALT 1900FT =
2018-06-18 16:35 METAR CYSC 181635Z AUTO 29018G25KT 270V350 2 1/2SM +TSRA BR SCT012 BKN019 OVC027
                 22/21 A2973 RMK LTNG DIST E W NW SLP068 DENSITY ALT 1900FT =
2018-06-18 16:26 METAR CYSC 181626Z AUTO 33016G27KT 290V350 1 3/4SM +TSRA BR SCT011 BKN019 BKN027
                 OVC032 22/21 A2971 RMK VIS VRB 3/4-3 LTNG DIST ALQDS SLP060 DENSITY ALT 2000FT =
2018-06-18 16:25 METAR CYSC 181625Z AUTO 32017G27KT 2 1/4SM +TSRA BR FEW011 BKN019 BKN027 OVC032
                 22/21 A2972 RMK VIS VRB 3/4-3 LTNG DIST ALQDS SLP064 DENSITY ALT 2000FT =
2018-06-18 16:22 METAR CYSC 181622Z AUTO 31009G15KT 5SM TS BR FEW015 SCT019 BKN027 OVC032 23/21
                 A2972 RMK LTNG DIST ALQDS SLP065 DENSITY ALT 2000FT =
2018-06-18 16:14 METAR CYSC 181614Z AUTO 34005KT 220V350 9SM TS SCT027 BKN032 BKN048 23/22 A2972
                 RMK LTNG DIST E W SLP065 DENSITY ALT 2100FT =
2018-06-18 16:02 METAR CYSC 181602Z AUTO 24006KT 8SM -TSRA FEW021 SCT032 BKN050 25/21 A2972 RMK
                 LTNG DIST W SLP064 DENSITY ALT 2200FT =
2018-06-18 16:00 METAR CYSC 181600Z AUTO 24009KT 200V270 8SM TS SCT032 BKN050 25/21 A2972 RMK
                 LTNG DIST N W SLP065 DENSITY ALT 2300FT =
2018-06-18 15:57 METAR CYSC 181557Z AUTO 24009KT 200V270 9SM TS SCT032 BKN050 25/21 A2972 RMK
                 LTNG DIST N W SLP064 DENSITY ALT 2300FT =
2018-06-18 15:00 METAR CYSC 181500Z AUTO 22009G15KT 9SM FEW050 24/21 A2974 RMK SLP070 DENSITY ALT
                 2200FT =
2018-06-18 14:00 METAR CYSC 181400Z AUTO 23003KT 160V260 9SM FEW075 21/19 A2977 RMK SLP081
                 DENSITY ALT 1800FT =
2018-06-18 13:24 METAR CYSC 181324Z AUTO 17003KT 150V210 9SM FEW019 SCT065 SCT250 20/19 A2978 RMK
                 LTNG DIST SE PRESFR SLP085 DENSITY ALT 1600FT =
2018-06-18 13:12 METAR CYSC 181312Z AUTO 18005KT 160V230 8SM -RA FEW015 SCT030 BKN048 BKN065
                 19/18 A2979 RMK LTNG DIST SE PRESFR SLP088 DENSITY ALT 1600FT =
2018-06-18 13:00 METAR CYSC 181300Z AUTO 22005KT 180V260 9SM TSRA FEW033 BKN048 20/18 A2981 RMK
                 LTNG DIST SE SLP094 DENSITY ALT 1600FT =
2018-06-18 12:54 METAR CYSC 181254Z AUTO 25003KT 210V280 9SM -TSRA BKN050 20/18 A2981 RMK LTNG
                 DIST SE SLP094 DENSITY ALT 1600FT =
2018-06-18 12:50 METAR CYSC 181250Z AUTO 25003KT 230V290 9SM -RA VCTS BKN050 20/18 A2981 RMK LTNG
                 DIST SE SLP095 DENSITY ALT 1600FT =
2018-06-18 12:46 METAR CYSC 181246Z AUTO 25003KT 220V300 9SM -RA BKN050 BKN070 BKN250 20/18 A2982
                 RMK LTNG DIST SE SLP096 DENSITY ALT 1600FT =
2018-06-18 12:24 METAR CYSC 181224Z AUTO VRB03KT 9SM FEW008 SCT042 BKN055 BKN075 19/18 A2982 RMK
                 LTNG DIST E SE S SLP098 DENSITY ALT 1500FT =
2018-06-18 12:21 METAR CYSC 181221Z AUTO VRB03KT 9SM TS FEW008 SCT042 BKN055 BKN075 19/18 A2982
                 RMK LTNG DIST E SE S SLP098 DENSITY ALT 1500FT =
2018-06-18 12:00 METAR CYSC 181200Z AUTO VRB05KT 9SM -TSRA FEW010 SCT035 BKN049 BKN250 19/18
                 A2982 RMK LTNG DIST ALQDS PCPN 0.5MM PAST HR SLP099 DENSITY ALT 1500FT =
2018-06-18 11:53 METAR CYSC 181153Z AUTO VRB03KT 9SM -TSRA FEW032 SCT046 BKN250 19/18 A2983 RMK
                 LTNG DIST ALQDS SLP100 DENSITY ALT 1500FT =
2018-06-18 11:51 METAR CYSC 181151Z AUTO VRB03KT 9SM TS SCT046 SCT250 19/18 A2982 RMK LTNG DIST
                 ALQDS SLP099 DENSITY ALT 1500FT =
2018-06-18 11:47 METAR CYSC 181147Z AUTO 17004KT 140V210 9SM FEW048 19/18 A2981 RMK LTNG DIST
                 ALQDS PRESFR SLP094 DENSITY ALT 1500FT =
2018-06-18 11:25 METAR CYSC 181125Z AUTO 00000KT 9SM -RA FEW021 SCT250 18/17 A2983 RMK LTNG DIST
                 NE E SW SLP102 DENSITY ALT 1300FT =
2018-06-18 11:20 METAR CYSC 181120Z AUTO 00000KT 9SM TS FEW019 SCT043 18/17 A2983 RMK LTNG DIST
                 NE E SW SLP103 DENSITY ALT 1300FT =
2018-06-18 11:09 METAR CYSC 181109Z AUTO 18003KT 140V310 9SM -TSRA FEW015 SCT023 BKN043 17/17
                 A2983 RMK LTNG DIST N NE SW PRESFR SLP103 DENSITY ALT 1300FT =
2018-06-18 11:07 METAR CYSC 181107Z AUTO VRB03KT 7SM -RA VCTS FEW015 BKN023 BKN036 BKN043 17/17
                 A2984 RMK LTNG DIST ALQDS SLP104 DENSITY ALT 1300FT =
2018-06-18 11:06 METAR CYSC 181106Z AUTO VRB02KT 6SM -RA VCTS BR FEW015 BKN025 BKN040 17/17 A2984
                 RMK LTNG DIST ALQDS SLP104 DENSITY ALT 1300FT =
2018-06-18 11:02 METAR CYSC 181102Z AUTO VRB02KT 3SM -RA VCTS BR FEW017 BKN025 OVC040 17/17 A2985
                 RMK LTNG DIST ALQDS SLP107 DENSITY ALT 1300FT =
2018-06-18 11:01 METAR CYSC 181101Z AUTO VRB02KT 2 1/2SM -RA VCTS BR FEW017 BKN025 OVC038 17/17
                 A2985 RMK VIS VRB 1 3/4-3 LTNG DIST ALQDS PRESRR SLP108 DENSITY ALT 1300FT =
2018-06-18 11:00 METAR CYSC 181100Z AUTO 28003KT 240V330 2 1/2SM +RA VCTS BR FEW017 BKN025 BKN038
                 17/17 A2985 RMK VIS VRB 1 3/4-3 LTNG DIST ALQDS SLP108 DENSITY ALT 1300FT =
2018-06-18 10:58 METAR CYSC 181058Z AUTO 31005KT 230V330 2 1/2SM +RA VCTS BR FEW017 BKN027 BKN036
                 17/17 A2985 RMK VIS VRB 1 3/4-3 LTNG DIST ALQDS PRESRR SLP110 DENSITY ALT 1300FT
                 =
2018-06-18 10:53 METAR CYSC 181053Z AUTO 26006KT 210V280 4SM +RA VCTS BR FEW017 BKN027 17/17
                 A2985 RMK LTNG DIST ALQDS PRESRR SLP109 DENSITY ALT 1300FT =
2018-06-18 10:51 METAR CYSC 181051Z AUTO 25007KT 180V260 5SM RA VCTS BR FEW017 BKN027 17/17 A2985
                 RMK LTNG DIST ALQDS SLP107 DENSITY ALT 1300FT =
2018-06-18 10:46 METAR CYSC 181046Z AUTO 22006KT 180V250 6SM -RA VCTS BR BKN027 17/17 A2983 RMK
                 LTNG DIST N W NW SLP103 DENSITY ALT 1300FT =
2018-06-18 10:31 METAR CYSC 181031Z AUTO 20007KT 6SM TSRA BR FEW016 BKN025 17/17 A2984 RMK LTNG
                 DIST ALQDS SLP105 DENSITY ALT 1200FT =
2018-06-18 10:28 METAR CYSC 181028Z AUTO 22005KT 6SM RA BR FEW016 BKN025 BKN042 17/16 A2985 RMK
                 LTNG DIST ALQDS SLP107 DENSITY ALT 1200FT =
2018-06-18 10:17 METAR CYSC 181017Z AUTO 23005KT 220V300 6SM -TSRA BR SCT019 SCT030 BKN045 16/16
                 A2985 RMK LTNG DIST SE W NW SLP108 DENSITY ALT 1100FT =
2018-06-18 10:12 METAR CYSC 181012Z AUTO 24003KT 230V320 4SM TSRA BR SCT017 BKN045 16/16 A2985
                 RMK LTNG DIST SE W SLP109 DENSITY ALT 1100FT =
2018-06-18 10:11 METAR CYSC 181011Z AUTO VRB02KT 4SM RA VCTS BR SCT017 BKN045 16/16 A2985 RMK
                 LTNG DIST W SLP109 DENSITY ALT 1100FT =
2018-06-18 10:09 METAR CYSC 181009Z AUTO 27003KT 250V320 4SM +RA VCTS BR SCT017 BKN045 BKN055
                 16/16 A2985 RMK LTNG DIST W SLP110 DENSITY ALT 1100FT =
2018-06-18 10:07 METAR CYSC 181007Z AUTO 30003KT 5SM +RA BR SCT017 BKN045 OVC055 16/15 A2986 RMK
                 LTNG DIST W PRESRR SLP111 DENSITY ALT 1100FT =
2018-06-18 10:05 METAR CYSC 181005Z AUTO 30004KT 7SM +RA FEW017 BKN045 OVC055 16/16 A2986 RMK
                 PRESRR SLP111 DENSITY ALT 1100FT =
2018-06-18 10:00 METAR CYSC 181000Z AUTO 29005KT 190V310 9SM -RA OVC048 17/16 A2985 RMK LTNG DIST
                 W PRESRR SLP110 DENSITY ALT 1200FT =
2018-06-18 09:42 METAR CYSC 180942Z AUTO VRB02KT 9SM BKN050 17/16 A2984 RMK LTNG DIST W SLP104
                 DENSITY ALT 1300FT =
2018-06-18 09:27 METAR CYSC 180927Z AUTO 12003KT 080V190 9SM -RA FEW031 BKN050 BKN055 BKN073
                 17/15 A2984 RMK SLP105 DENSITY ALT 1200FT =
2018-06-18 09:12 METAR CYSC 180912Z AUTO 16003KT 070V180 9SM BKN060 BKN069 17/15 A2985 RMK SLP107
                 DENSITY ALT 1300FT =
2018-06-18 09:00 METAR CYSC 180900Z AUTO VRB02KT 7SM -RA FEW026 BKN060 17/15 A2986 RMK LTNG DIST
                 SW SLP112 DENSITY ALT 1200FT =
2018-06-18 08:58 METAR CYSC 180858Z AUTO VRB02KT 7SM -RA FEW028 BKN060 18/15 A2986 RMK LTNG DIST
                 SW SLP112 DENSITY ALT 1300FT =
2018-06-18 08:51 METAR CYSC 180851Z AUTO 16004KT 130V190 9SM SCT033 BKN060 17/15 A2985 RMK LTNG
                 DIST SW PRESFR SLP108 DENSITY ALT 1300FT =
2018-06-18 08:00 METAR CYSC 180800Z AUTO 16003KT 150V210 9SM RA BKN029 17/14 A2988 RMK LTNG DIST
                 NW PRESFR SLP117 DENSITY ALT 1200FT =
2018-06-18 07:00 METAR CYSC 180700Z AUTO 00000KT 9SM -RA FEW080 17/15 A2989 RMK SLP121 DENSITY
                 ALT 1200FT =
2018-06-18 06:46 METAR CYSC 180646Z AUTO 00000KT 9SM -RA FEW080 SCT095 17/15 A2989 RMK SLP121
                 DENSITY ALT 1200FT =
2018-06-18 06:37 METAR CYSC 180637Z AUTO 00000KT 9SM SCT080 BKN097 17/15 A2989 RMK SLP121 DENSITY
                 ALT 1200FT =
2018-06-18 06:27 METAR CYSC 180627Z AUTO 00000KT 9SM -RA SCT095 17/14 A2989 RMK SLP123 DENSITY
                 ALT 1200FT =
2018-06-18 06:00 METAR CYSC 180600Z AUTO 08002KT 9SM FEW090 SCT110 SCT250 18/14 A2990 RMK SLP126
                 DENSITY ALT 1200FT =
2018-06-18 05:00 METAR CYSC 180500Z AUTO 00000KT 9SM FEW100 SCT130 SCT250 17/14 A2992 RMK SLP132
                 DENSITY ALT 1200FT =
2018-06-18 04:00 METAR CYSC 180400Z AUTO 00000KT 9SM CLR 18/14 A2993 RMK SLP137 DENSITY ALT
                 1200FT =
2018-06-18 03:00 METAR CYSC 180300Z AUTO 21002KT 9SM CLR 22/10 A2995 RMK SLP140 DENSITY ALT
                 1700FT =
2018-06-18 02:00 METAR CYSC 180200Z AUTO 21004KT 9SM CLR 21/11 A2995 RMK SLP142 DENSITY ALT
                 1600FT =
2018-06-18 01:00 METAR CYSC 180100Z AUTO 20003KT 9SM CLR 23/12 A2995 RMK SLP142 DENSITY ALT
                 1800FT =

Support USWX by starting your Amazon purchase here.